Time;durP1;ratioP1;P1;durP2;ratioP2;P2;SDS_P1;SDS_P2;PMS_P1;PMS_P2;Temp;Humidity;BMP_temperature;BMP_pressure;BME280_temperature;BME280_humidity;BME280_pressure;Samples;Min_cycle;Max_cycle;Signal;HPM_P1;HPM_P2
2021/09/27 00:01:40;;;;;;;26.52;15.00;;;;;;;12.03;77.28;97514.86;1758778;80;28166;-93
2021/09/27 00:04:06;;;;;;;29.98;14.95;;;;;;;12.01;77.21;97517.47;1768928;80;25813;-92
2021/09/27 00:06:33;;;;;;;24.15;14.45;;;;;;;11.98;77.28;97516.55;1752116;80;25703;-92
2021/09/27 00:08:59;;;;;;;20.48;13.65;;;;;;;11.95;77.36;97517.00;1763213;81;26775;-92
2021/09/27 00:11:27;;;;;;;33.10;13.48;;;;;;;11.93;77.44;97514.52;1768923;80;25728;-93
2021/09/27 00:13:57;;;;;;;25.60;13.85;;;;;;;11.94;77.52;97515.34;1768912;80;28323;-92
2021/09/27 00:16:24;;;;;;;27.22;13.05;;;;;;;11.95;77.55;97518.36;1757952;80;25704;-93
2021/09/27 00:18:51;;;;;;;26.65;13.13;;;;;;;11.94;77.58;97523.46;1757635;79;25471;-91
2021/09/27 00:21:27;;;;;;;26.48;13.58;;;;;;;11.93;77.60;97518.57;1763326;80;26090;-91
2021/09/27 00:23:56;;;;;;;23.38;12.35;;;;;;;11.92;77.66;97514.73;1761497;80;25804;-93
2021/09/27 00:26:24;;;;;;;28.55;13.50;;;;;;;11.87;77.72;97509.44;1770216;80;27277;-92
2021/09/27 00:28:51;;;;;;;27.17;13.50;;;;;;;11.84;77.78;97515.80;1768558;80;25700;-93
2021/09/27 00:31:18;;;;;;;19.48;12.47;;;;;;;11.81;77.86;97511.67;1762404;81;25914;-91
2021/09/27 00:33:45;;;;;;;20.05;13.25;;;;;;;11.82;77.82;97517.91;1766379;81;26121;-92
2021/09/27 00:36:12;;;;;;;20.77;12.75;;;;;;;11.82;77.85;97511.98;1769210;80;26532;-93
2021/09/27 00:38:39;;;;;;;24.02;12.20;;;;;;;11.81;77.87;97506.27;1763302;81;27622;-93
2021/09/27 00:41:11;;;;;;;18.73;12.47;;;;;;;11.80;77.80;97511.36;1768559;81;25823;-91
2021/09/27 00:43:39;;;;;;;21.25;12.63;;;;;;;11.78;77.77;97510.74;1749989;79;25790;-92
2021/09/27 00:46:11;;;;;;;18.67;12.60;;;;;;;11.77;77.77;97514.48;1768374;81;26835;-92
2021/09/27 00:48:38;;;;;;;20.70;12.53;;;;;;;11.76;77.74;97516.88;1769991;81;25665;-92
2021/09/27 00:51:10;;;;;;;16.70;12.10;;;;;;;11.78;77.72;97517.50;1769196;81;28212;-92
2021/09/27 00:53:46;;;;;;;15.50;12.00;;;;;;;11.79;77.68;97518.33;1750722;81;25834;-92
2021/09/27 00:56:17;;;;;;;25.35;13.83;;;;;;;11.76;77.59;97521.46;1738453;81;25776;-93
2021/09/27 00:58:46;;;;;;;26.33;13.58;;;;;;;11.74;77.61;97510.00;1738369;81;26007;-91
2021/09/27 01:01:14;;;;;;;26.50;14.63;;;;;;;11.72;77.77;97510.20;1738075;81;26394;-93
2021/09/27 01:03:41;;;;;;;25.70;14.55;;;;;;;11.73;77.86;97506.98;1738792;81;27543;-94
2021/09/27 01:06:39;;;;;;;20.40;13.18;;;;;;;11.73;77.93;97502.41;1738713;81;26006;-94
2021/09/27 01:09:44;;;;;;;30.02;13.93;;;;;;;11.72;77.95;97503.45;1772811;79;25266;-93
2021/09/27 01:12:25;;;;;;;32.98;13.93;;;;;;;11.70;78.14;97501.51;1720803;82;25996;-93
2021/09/27 01:15:27;;;;;;;21.55;14.60;;;;;;;11.68;78.19;97496.00;1711810;80;25821;-91
2021/09/27 01:18:36;;;;;;;22.83;13.63;;;;;;;11.67;78.27;97491.11;1772310;80;27415;-92
2021/09/27 01:21:27;;;;;;;24.00;13.43;;;;;;;11.67;78.26;97500.58;1772006;80;25934;-93
2021/09/27 01:24:29;;;;;;;23.65;13.22;;;;;;;11.64;78.26;97496.95;1772138;80;25264;-94
2021/09/27 01:27:22;;;;;;;19.90;13.10;;;;;;;11.62;78.34;97497.68;1769740;80;26203;-94
2021/09/27 01:30:30;;;;;;;20.25;12.60;;;;;;;11.62;78.49;97499.03;1770937;80;25843;-92
2021/09/27 01:33:00;;;;;;;26.15;11.78;;;;;;;11.57;78.45;97493.98;1771809;80;27488;-93
2021/09/27 01:36:02;;;;;;;18.62;12.85;;;;;;;11.55;78.41;97499.08;1771574;80;25782;-92
2021/09/27 01:38:34;;;;;;;24.63;14.33;;;;;;;11.54;78.34;97493.87;1771700;80;25712;-92
2021/09/27 01:41:31;;;;;;;19.57;12.98;;;;;;;11.53;78.37;97491.70;1771593;80;26943;-92
2021/09/27 01:44:11;;;;;;;27.10;12.35;;;;;;;11.53;78.35;97488.16;1771730;80;26263;-92
2021/09/27 01:46:58;;;;;;;23.67;12.75;;;;;;;11.52;78.36;97489.20;1771798;80;27525;-92
2021/09/27 01:49:57;;;;;;;20.95;12.55;;;;;;;11.51;78.38;97497.00;1771949;80;26000;-92
2021/09/27 01:52:53;;;;;;;21.23;13.60;;;;;;;11.48;78.41;97495.56;1772199;80;25813;-93
2021/09/27 01:55:25;;;;;;;27.67;14.28;;;;;;;11.46;78.43;97492.78;1772538;80;26057;-93
2021/09/27 01:57:57;;;;;;;28.80;13.60;;;;;;;11.44;78.48;97484.05;1772159;80;25768;-92
2021/09/27 02:00:41;;;;;;;21.90;13.93;;;;;;;11.44;78.51;97486.77;1771522;80;27372;-94
2021/09/27 02:03:25;;;;;;;19.30;12.98;;;;;;;11.42;78.55;97482.08;1771972;80;25253;-91
2021/09/27 02:06:15;;;;;;;19.67;13.53;;;;;;;11.39;78.61;97487.91;1771431;80;25946;-92
2021/09/27 02:08:54;;;;;;;24.02;13.75;;;;;;;11.39;78.71;97485.20;1772032;80;26066;-93
2021/09/27 02:11:26;;;;;;;25.65;13.32;;;;;;;11.37;78.75;97481.37;1771806;80;26261;-94
2021/09/27 02:14:24;;;;;;;23.02;12.73;;;;;;;11.39;78.81;97483.86;1771550;80;26816;-94
2021/09/27 02:17:09;;;;;;;23.35;12.80;;;;;;;11.40;78.90;97481.47;1740724;81;25778;-93
2021/09/27 02:19:49;;;;;;;21.87;13.38;;;;;;;11.40;78.88;97476.89;1760732;81;25707;-94
2021/09/27 02:22:38;;;;;;;30.75;13.88;;;;;;;11.40;78.84;97481.47;1757598;80;26163;-94
2021/09/27 02:25:31;;;;;;;19.17;13.20;;;;;;;11.39;78.90;97480.63;1765169;80;25794;-92
2021/09/27 02:27:55;;;;;;;25.77;13.70;;;;;;;11.41;78.93;97488.53;1768295;81;27595;-93
2021/09/27 02:30:27;;;;;;;21.45;13.80;;;;;;;11.39;78.98;97483.34;1768576;81;26563;-94
2021/09/27 02:33:34;;;;;;;23.05;13.62;;;;;;;11.40;79.00;97483.65;1768204;81;25743;-94
2021/09/27 02:36:21;;;;;;;19.87;14.07;;;;;;;11.41;79.03;97483.13;1768581;81;26233;-94
2021/09/27 02:39:02;;;;;;;19.92;14.28;;;;;;;11.40;79.08;97485.52;1769018;80;25816;-93
2021/09/27 02:41:46;;;;;;;22.55;15.45;;;;;;;11.38;79.10;97486.25;1769528;81;27455;-93
2021/09/27 02:44:13;;;;;;;21.73;13.32;;;;;;;11.36;79.14;97477.52;1768827;81;25945;-93
2021/09/27 02:46:52;;;;;;;26.55;14.38;;;;;;;11.36;79.19;97482.92;1769504;81;25583;-91
2021/09/27 02:49:14;;;;;;;;;;;;;;;11.35;79.24;97478.59;1769406;81;25636;-93
2021/09/27 02:51:47;;;;;;;25.02;13.83;;;;;;;11.34;79.35;97478.28;1768610;81;25789;-95
2021/09/27 02:54:22;;;;;;;24.77;14.35;;;;;;;11.35;79.34;97481.30;1769148;81;28192;-93
2021/09/27 02:57:00;;;;;;;24.40;14.93;;;;;;;11.36;79.35;97483.76;1767986;81;26419;-93
2021/09/27 03:00:02;;;;;;;28.27;14.90;;;;;;;11.39;79.35;97481.16;1763254;81;25722;-94
2021/09/27 03:03:07;;;;;;;25.30;15.83;;;;;;;11.39;79.37;97485.20;1768805;80;26147;-94
2021/09/27 03:06:13;;;;;;;34.25;14.47;;;;;;;11.34;79.37;97481.81;1768714;81;25676;-93
2021/09/27 03:09:19;;;;;;;26.30;13.90;;;;;;;11.29;79.44;97487.02;1768564;81;28267;-94
2021/09/27 03:12:16;;;;;;;30.45;14.93;;;;;;;11.27;79.52;97485.56;1768244;81;25843;-93
2021/09/27 03:15:30;;;;;;;22.98;13.85;;;;;;;11.17;79.53;97480.10;1768441;81;25736;-94
2021/09/27 03:18:30;;;;;;;23.00;12.43;;;;;;;11.06;79.53;97490.22;1746493;81;26198;-94
2021/09/27 03:21:19;;;;;;;25.08;13.53;;;;;;;11.05;79.68;97483.16;1768429;81;25707;-93
2021/09/27 03:23:54;;;;;;;31.97;12.53;;;;;;;11.06;79.72;97489.39;1753780;81;27391;-94
2021/09/27 03:26:58;;;;;;;23.05;12.47;;;;;;;11.05;79.79;97481.80;1762803;80;25747;-94
2021/09/27 03:29:55;;;;;;;27.05;12.03;;;;;;;11.06;79.82;97474.53;1768216;81;26389;-89
2021/09/27 03:33:11;;;;;;;21.17;12.68;;;;;;;11.06;79.84;97479.41;1768031;80;26603;-94
2021/09/27 03:36:02;;;;;;;28.77;13.18;;;;;;;11.05;79.83;97469.65;1754727;80;25466;-94
2021/09/27 03:38:53;;;;;;;26.15;12.50;;;;;;;11.04;79.87;97461.75;1768566;80;27357;-93
2021/09/27 03:41:37;;;;;;;22.45;12.15;;;;;;;11.04;79.89;97456.35;1768413;81;26296;-89
2021/09/27 03:44:15;;;;;;;21.40;12.80;;;;;;;11.04;79.93;97449.08;1768760;81;25637;-95
2021/09/27 03:47:03;;;;;;;19.17;12.95;;;;;;;11.04;79.93;97447.73;1768362;81;26029;-93
2021/09/27 03:49:53;;;;;;;23.52;12.75;;;;;;;11.03;79.97;97453.34;1768730;81;25808;-91
2021/09/27 03:52:31;;;;;;;28.10;12.50;;;;;;;11.04;80.06;97449.59;1741055;79;27567;-92
2021/09/27 03:55:23;;;;;;;25.00;12.00;;;;;;;11.00;80.14;97448.36;1759291;81;25295;-93
2021/09/27 03:58:07;;;;;;;19.48;12.40;;;;;;;11.00;80.23;97445.66;1753395;81;26351;-88
2021/09/27 04:00:47;;;;;;;19.32;11.48;;;;;;;10.99;80.28;97439.42;1769236;81;26102;-92
2021/09/27 04:03:44;;;;;;;20.70;12.90;;;;;;;11.03;80.34;97446.06;1769434;80;25701;-92
2021/09/27 04:06:31;;;;;;;22.67;11.95;;;;;;;11.04;80.36;97446.89;1769142;81;27410;-91
2021/09/27 04:09:26;;;;;;;23.25;11.45;;;;;;;11.05;80.41;97450.73;1769344;81;25764;-92
2021/09/27 04:12:10;;;;;;;28.17;10.35;;;;;;;11.04;80.43;97451.78;1768869;81;25739;-92
2021/09/27 04:14:47;;;;;;;17.07;10.25;;;;;;;11.03;80.48;97443.88;1746758;80;26003;-92
2021/09/27 04:17:55;;;;;;;16.35;10.60;;;;;;;11.02;80.51;97443.58;1767962;81;26504;-93
2021/09/27 04:20:36;;;;;;;17.48;11.03;;;;;;;11.02;80.57;97443.58;1756245;80;27444;-92
2021/09/27 04:23:20;;;;;;;15.55;11.50;;;;;;;11.03;80.67;97446.06;1771572;79;25772;-92
2021/09/27 04:26:13;;;;;;;17.15;11.68;;;;;;;11.05;80.71;97449.39;1738963;81;25756;-93
2021/09/27 04:29:16;;;;;;;25.10;12.13;;;;;;;11.07;80.75;97455.41;1768541;81;26043;-92
2021/09/27 04:32:07;;;;;;;12.73;10.43;;;;;;;11.07;80.75;97449.18;1762391;79;26038;-92
2021/09/27 04:34:57;;;;;;;19.52;11.25;;;;;;;11.06;80.84;97445.65;1759149;81;27667;-89
2021/09/27 04:37:26;;;;;;;14.43;11.00;;;;;;;11.08;80.83;97450.84;1658487;83;26223;-91
2021/09/27 04:39:53;;;;;;;17.37;10.18;;;;;;;11.09;80.87;97455.20;1673133;84;25834;-92
2021/09/27 04:42:49;;;;;;;18.65;11.15;;;;;;;11.10;80.90;97458.22;1672838;84;25990;-91
2021/09/27 04:45:43;;;;;;;18.17;11.20;;;;;;;11.11;80.90;97459.33;1672986;83;26136;-92
2021/09/27 04:48:42;;;;;;;25.62;11.08;;;;;;;11.13;80.91;97458.59;1673068;83;28288;-90
2021/09/27 04:51:20;;;;;;;15.95;10.88;;;;;;;11.12;80.93;97463.69;1678409;83;25926;-93
2021/09/27 04:54:15;;;;;;;18.12;12.07;;;;;;;11.11;80.94;97459.33;1673644;83;26442;-93
2021/09/27 04:57:29;;;;;;;16.55;12.40;;;;;;;11.13;80.96;97468.57;1674201;83;26047;-92
2021/09/27 05:00:08;;;;;;;20.02;13.20;;;;;;;11.15;80.99;97471.89;1678467;83;25325;-92
2021/09/27 05:02:46;;;;;;;17.65;11.95;;;;;;;11.16;81.02;97468.98;1677324;83;27464;-91
2021/09/27 05:05:46;;;;;;;26.90;12.45;;;;;;;11.18;80.95;97470.95;1673509;83;25872;-92
2021/09/27 05:08:18;;;;;;;24.90;12.15;;;;;;;11.19;80.88;97472.62;1651254;84;25818;-91
2021/09/27 05:10:56;;;;;;;22.20;11.22;;;;;;;11.19;80.91;97473.14;1671805;84;27009;-92
2021/09/27 05:13:47;;;;;;;26.27;10.35;;;;;;;11.22;81.00;97478.64;1717314;80;25880;-92
2021/09/27 05:16:54;;;;;;;12.60;10.80;;;;;;;11.21;80.94;97480.52;1767874;81;27552;-92
2021/09/27 05:19:38;;;;;;;18.70;11.15;;;;;;;11.24;81.08;97477.88;1746498;81;25853;-91
2021/09/27 05:22:49;;;;;;;21.82;11.83;;;;;;;11.24;81.11;97473.83;1768490;81;25863;-95
2021/09/27 05:25:50;;;;;;;42.00;12.10;;;;;;;11.24;81.24;97480.58;1755678;79;26013;-90
2021/09/27 05:28:51;;;;;;;23.27;11.55;;;;;;;11.24;81.23;97479.23;1767642;79;25799;-91
2021/09/27 05:32:07;;;;;;;23.45;14.58;;;;;;;11.25;81.23;97476.84;1749845;79;27394;-89
2021/09/27 05:34:51;;;;;;;17.60;13.25;;;;;;;11.27;81.34;97482.87;1749664;79;25787;-88
2021/09/27 05:37:44;;;;;;;20.68;14.65;;;;;;;11.30;81.45;97483.80;1768175;81;25682;-88
2021/09/27 05:40:35;;;;;;;31.52;14.55;;;;;;;11.33;81.35;97488.27;1750371;79;26406;-90
2021/09/27 05:43:24;;;;;;;27.48;13.45;;;;;;;11.31;81.30;97486.30;1768912;81;25771;-90
2021/09/27 05:46:02;;;;;;;21.25;12.88;;;;;;;11.34;81.35;97497.20;1768731;81;27368;-89
2021/09/27 05:48:45;;;;;;;28.75;13.10;;;;;;;11.37;81.40;97498.10;1768173;81;25780;-89
2021/09/27 05:51:38;;;;;;;19.02;12.40;;;;;;;11.41;81.41;97503.40;1751191;79;25851;-90
2021/09/27 05:54:22;;;;;;;21.95;11.15;;;;;;;11.42;81.41;97502.36;1751239;81;26710;-89
2021/09/27 05:57:09;;;;;;;22.45;12.30;;;;;;;11.42;81.47;97502.36;1768176;80;25771;-88
2021/09/27 06:00:11;;;;;;;24.57;12.95;;;;;;;11.45;81.60;97499.23;1767840;81;28017;-87
2021/09/27 06:03:18;;;;;;;23.20;13.60;;;;;;;11.44;81.59;97495.70;1664592;85;26420;-87
2021/09/27 06:05:53;;;;;;;22.40;12.58;;;;;;;11.46;81.65;97498.19;1670874;85;25368;-89
2021/09/27 06:08:24;;;;;;;27.87;14.70;;;;;;;11.51;81.69;97495.13;1667181;85;26359;-88
2021/09/27 06:11:14;;;;;;;22.35;14.20;;;;;;;11.56;81.66;97491.80;1671233;85;25879;-90
2021/09/27 06:13:48;;;;;;;21.52;13.48;;;;;;;11.61;81.65;97489.26;1669771;84;27464;-88
2021/09/27 06:16:58;;;;;;;19.27;14.20;;;;;;;11.65;81.74;97490.50;1670925;85;25939;-86
2021/09/27 06:19:47;;;;;;;19.07;14.03;;;;;;;11.65;81.63;97493.20;1670134;85;26171;-87
2021/09/27 06:22:44;;;;;;;16.87;13.13;;;;;;;11.73;81.82;97490.75;1673912;85;26006;-88
2021/09/27 06:25:30;;;;;;;16.62;12.03;;;;;;;11.81;81.90;97495.44;1670685;85;25847;-87
2021/09/27 06:28:42;;;;;;;17.87;12.60;;;;;;;11.85;81.83;97492.59;1671142;85;28257;-88
2021/09/27 06:31:26;;;;;;;18.00;12.95;;;;;;;11.93;81.84;97492.05;1646396;86;25790;-88
2021/09/27 06:34:14;;;;;;;20.45;12.35;;;;;;;12.00;81.89;97495.52;1638892;87;25874;-88
2021/09/27 06:36:42;;;;;;;17.17;12.25;;;;;;;12.08;81.97;97492.55;1646838;84;26118;-87
2021/09/27 06:39:23;;;;;;;17.42;12.80;;;;;;;12.15;81.93;97496.88;1688192;84;25400;-87
2021/09/27 06:41:52;;;;;;;15.50;12.05;;;;;;;12.24;81.87;97494.73;1686831;84;27402;-87
2021/09/27 06:44:21;;;;;;;17.52;11.97;;;;;;;12.39;81.87;97493.89;1714504;83;26398;-85
2021/09/27 06:46:49;;;;;;;14.43;11.80;;;;;;;12.51;81.79;97488.06;1708117;83;26685;-85
2021/09/27 06:49:16;;;;;;;14.78;11.43;;;;;;;12.67;81.77;97485.84;1720776;83;26783;-85
2021/09/27 06:51:44;;;;;;;16.12;11.68;;;;;;;12.79;81.52;97478.65;1690441;84;25849;-86
2021/09/27 06:54:12;;;;;;;17.60;12.15;;;;;;;12.89;81.35;97478.44;1702316;83;27386;-87
2021/09/27 06:56:40;;;;;;;19.02;12.47;;;;;;;12.99;81.25;97466.55;1672718;84;25971;-86
2021/09/27 06:59:07;;;;;;;14.75;10.82;;;;;;;13.13;81.28;97468.59;1685316;83;25822;-85
2021/09/27 07:01:34;;;;;;;15.03;11.03;;;;;;;13.24;81.18;97465.67;1687531;83;26840;-87
2021/09/27 07:04:01;;;;;;;15.25;10.85;;;;;;;13.38;81.13;97469.06;1689358;83;26121;-88
2021/09/27 07:06:28;;;;;;;11.73;10.43;;;;;;;13.50;81.07;97470.78;1708118;83;28249;-87
2021/09/27 07:08:55;;;;;;;16.23;11.15;;;;;;;13.66;80.99;97466.06;1769027;80;25921;-88
2021/09/27 07:11:22;;;;;;;11.93;10.15;;;;;;;13.83;80.89;97463.55;1764103;80;26042;-88
2021/09/27 07:13:49;;;;;;;14.78;10.90;;;;;;;14.01;80.70;97467.54;1758644;80;25978;-89
2021/09/27 07:16:16;;;;;;;17.37;10.72;;;;;;;14.18;80.45;97463.64;1709257;82;25761;-88
2021/09/27 07:18:43;;;;;;;18.77;10.20;;;;;;;14.36;80.31;97461.39;1753080;80;27480;-88
2021/09/27 07:21:11;;;;;;;14.10;10.00;;;;;;;14.55;80.11;97453.98;1739595;81;25828;-87
2021/09/27 07:23:39;;;;;;;11.50;9.10;;;;;;;14.75;79.86;97455.28;1727902;82;25781;-87
2021/09/27 07:26:08;;;;;;;11.83;9.43;;;;;;;14.99;79.69;97452.55;1738617;81;26171;-87
2021/09/27 07:28:36;;;;;;;16.25;8.98;;;;;;;15.20;79.41;97449.23;1739070;81;25852;-88
2021/09/27 07:31:04;;;;;;;14.35;10.20;;;;;;;15.42;79.16;97448.88;1740613;80;27511;-88
2021/09/27 07:33:33;;;;;;;14.30;10.20;;;;;;;15.64;78.92;97443.62;1752526;80;26414;-87
2021/09/27 07:36:00;;;;;;;12.55;10.00;;;;;;;15.88;78.58;97440.80;1743012;81;26279;-87
2021/09/27 07:38:26;;;;;;;12.00;10.03;;;;;;;16.09;78.17;97442.27;1767308;80;26214;-87
2021/09/27 07:40:55;;;;;;;11.93;9.70;;;;;;;16.32;77.79;97441.30;1768905;80;25716;-88
2021/09/27 07:43:21;;;;;;;13.28;9.98;;;;;;;16.48;77.20;97436.94;1763097;80;27352;-86
2021/09/27 07:45:48;;;;;;;12.30;10.00;;;;;;;16.69;76.93;97430.76;1764185;80;26250;-85
2021/09/27 07:48:16;;;;;;;15.88;9.93;;;;;;;16.97;76.73;97433.07;1765311;79;25775;-86
2021/09/27 07:50:47;;;;;;;13.22;10.38;;;;;;;17.25;76.42;97425.56;1758140;80;26875;-88
2021/09/27 07:53:15;;;;;;;11.43;9.90;;;;;;;17.55;76.07;97429.19;1758823;80;25247;-85
2021/09/27 07:55:43;;;;;;;14.83;9.93;;;;;;;17.84;75.62;97429.00;1757177;80;28260;-86
2021/09/27 07:58:10;;;;;;;16.42;9.38;;;;;;;18.10;75.20;97422.72;1770305;79;25761;-85
2021/09/27 08:00:38;;;;;;;13.03;9.03;;;;;;;18.38;74.87;97420.75;1750997;80;25743;-89
2021/09/27 08:03:04;;;;;;;10.15;9.00;;;;;;;18.64;74.28;97415.27;1761229;80;25988;-90
2021/09/27 08:05:33;;;;;;;14.78;9.53;;;;;;;18.89;73.81;97417.34;1758629;81;25742;-85
2021/09/27 08:08:01;;;;;;;14.20;9.13;;;;;;;19.10;72.88;97414.72;1746763;80;26912;-86
2021/09/27 08:10:30;;;;;;;10.08;8.70;;;;;;;19.19;72.70;97413.15;1766963;80;26489;-86
2021/09/27 08:12:57;;;;;;;8.95;8.08;;;;;;;19.44;72.61;97413.27;1766620;79;26578;-87
2021/09/27 08:15:31;;;;;;;10.18;7.87;;;;;;;19.66;71.93;97415.29;1766891;79;26775;-87
2021/09/27 08:17:58;;;;;;;8.78;7.87;;;;;;;19.84;71.97;97414.50;1751031;79;26604;-85
2021/09/27 08:20:33;;;;;;;10.13;8.18;;;;;;;20.05;71.49;97410.70;1741211;81;27338;-86
2021/09/27 08:23:00;;;;;;;10.45;8.30;;;;;;;20.24;70.91;97413.20;1757692;80;25749;-85
2021/09/27 08:25:28;;;;;;;9.28;7.80;;;;;;;20.38;70.73;97410.23;1778962;80;25875;-85
2021/09/27 08:27:56;;;;;;;9.88;8.18;;;;;;;20.55;70.47;97400.89;1741365;81;26837;-85
2021/09/27 08:30:28;;;;;;;8.38;7.37;;;;;;;20.71;70.08;97399.78;1758523;80;25738;-86
2021/09/27 08:32:55;;;;;;;9.35;6.97;;;;;;;20.83;69.40;97397.58;1762881;80;28237;-85
2021/09/27 08:35:23;;;;;;;10.03;7.45;;;;;;;20.92;69.48;97391.78;1735048;81;25730;-85
2021/09/27 08:37:50;;;;;;;9.13;7.22;;;;;;;20.97;69.41;97390.41;1763611;80;25771;-87
2021/09/27 08:40:34;;;;;;;9.98;8.28;;;;;;;21.04;69.18;97373.09;1757472;81;26614;-84
2021/09/27 08:43:06;;;;;;;8.80;7.53;;;;;;;21.22;68.36;97387.36;1733296;81;25912;-86
2021/09/27 08:45:33;;;;;;;7.97;7.22;;;;;;;21.39;68.35;97389.19;1714005;82;28749;-85
2021/09/27 08:48:26;;;;;;;10.35;6.87;;;;;;;21.60;68.15;97392.69;1759475;79;25769;-86
2021/09/27 08:50:53;;;;;;;7.55;6.55;;;;;;;21.76;67.85;97389.56;1723326;82;25853;-86
2021/09/27 08:53:28;;;;;;;12.43;7.30;;;;;;;21.92;67.23;97384.26;1762775;81;26200;-88
2021/09/27 08:56:09;;;;;;;8.50;6.53;;;;;;;22.03;67.10;97385.59;1762922;79;25757;-86
2021/09/27 08:58:50;;;;;;;8.63;6.85;;;;;;;22.19;66.80;97377.52;1771227;79;27398;-87
2021/09/27 09:01:25;;;;;;;8.40;6.50;;;;;;;22.35;66.24;97380.39;1758095;79;25243;-87
2021/09/27 09:04:05;;;;;;;7.62;6.83;;;;;;;22.40;65.87;97377.61;1765880;80;25847;-87
2021/09/27 09:06:37;;;;;;;7.30;6.62;;;;;;;22.49;65.40;97375.05;1765247;81;25900;-87
2021/09/27 09:09:20;;;;;;;6.62;5.92;;;;;;;22.46;65.50;97370.94;1740545;80;26277;-90
2021/09/27 09:11:52;;;;;;;8.75;6.67;;;;;;;22.55;65.49;97363.73;1739290;80;27554;-87
2021/09/27 09:14:52;;;;;;;8.30;5.95;;;;;;;22.64;65.18;97361.98;1762060;81;26119;-84
2021/09/27 09:17:33;;;;;;;6.90;6.20;;;;;;;22.79;65.08;97368.48;1775451;79;25729;-85
2021/09/27 09:20:04;;;;;;;8.60;6.17;;;;;;;22.96;64.84;97360.58;1772115;80;25949;-84
2021/09/27 09:22:38;;;;;;;7.80;6.27;;;;;;;23.12;64.43;97366.20;1768017;81;25840;-85
2021/09/27 09:25:10;;;;;;;10.63;6.20;;;;;;;23.25;64.19;97366.87;1759415;79;27396;-84
2021/09/27 09:27:37;;;;;;;9.93;6.28;;;;;;;23.45;63.55;97360.83;1734800;81;25722;-84
2021/09/27 09:30:08;;;;;;;7.00;6.30;;;;;;;23.61;63.30;97361.76;1723806;82;25989;-85
2021/09/27 09:32:36;;;;;;;7.67;5.83;;;;;;;23.79;62.79;97358.73;1759846;79;26556;-85
2021/09/27 09:35:27;;;;;;;7.50;5.92;;;;;;;23.86;62.33;97363.34;1760745;81;25822;-87
2021/09/27 09:38:05;;;;;;;6.75;5.55;;;;;;;23.95;62.17;97358.79;1747166;81;28375;-83
2021/09/27 09:40:43;;;;;;;7.70;5.78;;;;;;;24.05;61.46;97353.12;1757722;81;26316;-84
2021/09/27 09:43:27;;;;;;;8.53;6.78;;;;;;;24.12;61.43;97351.94;1757305;80;26323;-84
2021/09/27 09:46:18;;;;;;;6.28;5.67;;;;;;;24.23;61.13;97350.13;1767211;80;25950;-84
2021/09/27 09:49:09;;;;;;;7.92;6.17;;;;;;;24.37;60.57;97347.42;1769711;80;25752;-85
2021/09/27 09:51:49;;;;;;;6.72;6.05;;;;;;;24.49;60.37;97354.66;1771202;80;27420;-84
2021/09/27 09:54:22;;;;;;;6.85;6.15;;;;;;;24.61;59.91;97343.97;1771131;79;25841;-87
2021/09/27 09:57:06;;;;;;;7.28;6.00;;;;;;;24.72;59.78;97345.41;1756422;80;25776;-84
2021/09/27 09:59:40;;;;;;;6.37;5.78;;;;;;;24.82;59.71;97335.30;1734428;82;25932;-87
2021/09/27 10:02:22;;;;;;;8.03;6.05;;;;;;;24.88;59.44;97331.31;1758231;79;25769;-87
2021/09/27 10:05:00;;;;;;;6.40;5.80;;;;;;;24.95;59.12;97327.63;1751869;79;27386;-88
2021/09/27 10:07:32;;;;;;;7.78;6.15;;;;;;;24.96;58.97;97333.41;1755888;79;25701;-84
2021/09/27 10:10:09;;;;;;;6.83;6.22;;;;;;;24.97;59.13;97328.15;1751064;79;25714;-85
2021/09/27 10:12:47;;;;;;;8.43;6.00;;;;;;;25.06;58.67;97331.83;1757327;79;25977;-85
2021/09/27 10:15:28;;;;;;;7.97;6.70;;;;;;;25.05;58.65;97328.81;1764224;79;25782;-88
2021/09/27 10:18:28;;;;;;;9.25;6.72;;;;;;;25.06;58.44;97326.30;1717744;82;27467;-86
2021/09/27 10:21:11;;;;;;;7.97;6.17;;;;;;;25.08;58.20;97321.30;1765596;81;26444;-88
2021/09/27 10:23:45;;;;;;;8.20;6.62;;;;;;;25.00;58.04;97319.23;1739715;81;25738;-86
2021/09/27 10:26:36;;;;;;;6.62;6.03;;;;;;;25.01;58.66;97318.11;1738679;82;26664;-87
2021/09/27 10:29:14;;;;;;;9.20;6.50;;;;;;;25.10;58.28;97321.81;1725594;82;25843;-88
2021/09/27 10:31:46;;;;;;;7.40;6.60;;;;;;;25.04;57.61;97316.13;1761119;79;27381;-91
2021/09/27 10:34:19;;;;;;;8.40;7.53;;;;;;;24.98;57.86;97317.36;1749969;80;25862;-90
2021/09/27 10:36:56;;;;;;;9.25;7.22;;;;;;;24.96;58.12;97316.84;1744089;80;25691;-88
2021/09/27 10:39:24;;;;;;;10.82;6.95;;;;;;;24.99;58.24;97313.48;1747318;80;26148;-92
2021/09/27 10:42:04;;;;;;;8.40;7.05;;;;;;;24.98;58.25;97320.13;1747835;80;25602;-91
2021/09/27 10:44:52;;;;;;;8.48;6.83;;;;;;;24.96;58.01;97319.05;1714441;82;27840;-89
2021/09/27 10:47:32;;;;;;;7.40;6.70;;;;;;;24.97;58.20;97322.62;1756742;81;25820;-90
2021/09/27 10:50:42;;;;;;;7.62;6.70;;;;;;;24.97;58.15;97315.16;1747124;80;25780;-88
2021/09/27 10:53:20;;;;;;;8.83;6.90;;;;;;;25.01;58.36;97321.69;1763791;81;26080;-87
2021/09/27 10:55:57;;;;;;;10.58;7.30;;;;;;;24.97;57.90;97312.41;1768640;79;25713;-89
2021/09/27 10:58:42;;;;;;;8.98;6.95;;;;;;;24.92;57.47;97317.16;1762984;79;27442;-89
2021/09/27 11:01:31;;;;;;;8.28;6.62;;;;;;;24.66;57.43;97305.22;1765591;81;25773;-89
2021/09/27 11:03:59;;;;;;;8.88;7.28;;;;;;;24.57;57.92;97320.84;1761297;81;26071;-89
2021/09/27 11:06:53;;;;;;;8.85;7.62;;;;;;;24.62;58.06;97316.63;1764184;80;27303;-89
2021/09/27 11:09:36;;;;;;;9.00;7.08;;;;;;;24.68;58.01;97314.02;1771414;80;25247;-90
2021/09/27 11:12:17;;;;;;;7.78;7.00;;;;;;;24.70;57.71;97308.20;1766248;80;28416;-91
2021/09/27 11:14:52;;;;;;;8.93;7.28;;;;;;;24.64;57.99;97310.78;1717942;81;25786;-90
2021/09/27 11:17:50;;;;;;;7.92;6.65;;;;;;;24.62;58.21;97316.63;1729228;81;25878;-89
2021/09/27 11:20:40;;;;;;;9.15;7.55;;;;;;;24.63;58.00;97311.37;1729785;80;26046;-90
2021/09/27 11:23:24;;;;;;;8.53;7.72;;;;;;;24.61;58.15;97312.23;1749417;80;25954;-90
2021/09/27 11:26:13;;;;;;;9.15;6.70;;;;;;;24.54;57.94;97314.55;1752061;80;28149;-89
2021/09/27 11:28:51;;;;;;;8.53;7.25;;;;;;;24.51;58.09;97311.04;1746573;81;25848;-88
2021/09/27 11:31:32;;;;;;;9.73;7.67;;;;;;;24.46;58.11;97308.36;1750037;80;26401;-86
2021/09/27 11:34:06;;;;;;;11.85;6.85;;;;;;;24.54;58.28;97297.99;1747808;80;26805;-91
2021/09/27 11:36:53;;;;;;;8.55;7.45;;;;;;;24.58;57.99;97289.38;1746466;81;25723;-90
2021/09/27 11:39:28;;;;;;;8.55;7.08;;;;;;;24.55;58.12;97287.77;1724553;81;27439;-90
2021/09/27 11:42:21;;;;;;;10.75;7.47;;;;;;;24.62;58.14;97287.65;1760710;80;25245;-90
2021/09/27 11:44:56;;;;;;;11.48;6.90;;;;;;;24.63;58.21;97285.15;1724356;81;25892;-85
2021/09/27 11:47:46;;;;;;;9.20;7.75;;;;;;;24.64;58.05;97292.28;1752776;80;25983;-92
2021/09/27 11:50:32;;;;;;;9.80;7.17;;;;;;;24.72;58.49;97290.22;1743605;81;25677;-93
2021/09/27 11:53:22;;;;;;;8.40;7.55;;;;;;;24.81;58.34;97287.55;1711737;81;28726;-96
2021/09/27 11:56:13;;;;;;;8.55;7.75;;;;;;;24.82;57.95;97291.95;1749792;81;25885;-86
2021/09/27 11:58:53;;;;;;;9.15;7.25;;;;;;;24.82;57.88;97294.72;1761835;80;25884;-92
2021/09/27 12:01:42;;;;;;;9.63;7.47;;;;;;;24.84;57.89;97290.27;1761961;81;25988;-93
2021/09/27 12:04:53;;;;;;;10.58;7.90;;;;;;;24.85;57.62;97285.01;1762121;80;25263;-88
2021/09/27 12:07:25;;;;;;;10.35;7.37;;;;;;;24.87;57.81;97288.28;1745914;80;28428;-89
2021/09/27 12:10:06;;;;;;;9.65;8.33;;;;;;;24.88;57.59;97282.44;1764480;80;25706;-92
2021/09/27 12:12:44;;;;;;;8.90;8.00;;;;;;;24.90;57.54;97284.89;1764321;80;25764;-93
2021/09/27 12:15:14;;;;;;;10.05;9.03;;;;;;;24.88;57.72;97282.99;1762989;80;25997;-92
2021/09/27 12:17:42;;;;;;;9.63;7.90;;;;;;;24.85;57.52;97276.73;1764346;81;25754;-89
2021/09/27 12:20:17;;;;;;;12.45;8.83;;;;;;;24.81;57.43;97281.22;1764189;80;28359;-94
2021/09/27 12:22:51;;;;;;;9.78;8.85;;;;;;;24.69;57.16;97277.58;1764339;80;25711;-93
2021/09/27 12:25:35;;;;;;;10.40;8.65;;;;;;;24.64;57.49;97270.77;1763518;81;25695;-87